sensor_id;sensor_type;location;lat;lon;timestamp;temperature;humidity
4054;DHT22;2042;47.956;9.222;2023-03-13T00:01:14;6.20;7.40
4054;DHT22;2042;47.956;9.222;2023-03-13T00:03:40;6.20;7.10
4054;DHT22;2042;47.956;9.222;2023-03-13T00:06:06;6.20;5.70
4054;DHT22;2042;47.956;9.222;2023-03-13T00:08:32;6.20;4.50
4054;DHT22;2042;47.956;9.222;2023-03-13T00:11:04;6.20;5.40
4054;DHT22;2042;47.956;9.222;2023-03-13T00:13:30;6.20;7.40
4054;DHT22;2042;47.956;9.222;2023-03-13T00:16:01;6.20;8.20
4054;DHT22;2042;47.956;9.222;2023-03-13T00:18:26;6.10;9.60
4054;DHT22;2042;47.956;9.222;2023-03-13T00:21:03;6.10;9.50
4054;DHT22;2042;47.956;9.222;2023-03-13T00:23:29;6.10;9.40
4054;DHT22;2042;47.956;9.222;2023-03-13T00:25:57;6.00;8.60
4054;DHT22;2042;47.956;9.222;2023-03-13T00:28:22;6.00;9.00
4054;DHT22;2042;47.956;9.222;2023-03-13T00:30:48;5.90;9.50
4054;DHT22;2042;47.956;9.222;2023-03-13T00:33:14;5.90;10.50
4054;DHT22;2042;47.956;9.222;2023-03-13T00:35:40;5.90;11.70
4054;DHT22;2042;47.956;9.222;2023-03-13T00:38:05;5.90;12.60
4054;DHT22;2042;47.956;9.222;2023-03-13T00:40:31;5.80;13.50
4054;DHT22;2042;47.956;9.222;2023-03-13T00:42:59;5.80;14.10
4054;DHT22;2042;47.956;9.222;2023-03-13T00:45:25;5.80;13.90
4054;DHT22;2042;47.956;9.222;2023-03-13T00:47:51;5.80;14.20
4054;DHT22;2042;47.956;9.222;2023-03-13T00:50:17;5.80;14.00
4054;DHT22;2042;47.956;9.222;2023-03-13T00:52:42;5.80;13.90
4054;DHT22;2042;47.956;9.222;2023-03-13T00:55:08;5.90;13.20
4054;DHT22;2042;47.956;9.222;2023-03-13T00:57:34;5.90;12.30
4054;DHT22;2042;47.956;9.222;2023-03-13T01:00:03;6.00;12.00
4054;DHT22;2042;47.956;9.222;2023-03-13T01:02:30;6.10;11.90
4054;DHT22;2042;47.956;9.222;2023-03-13T01:04:56;6.10;13.30
4054;DHT22;2042;47.956;9.222;2023-03-13T01:07:21;6.20;14.60
4054;DHT22;2042;47.956;9.222;2023-03-13T01:09:47;6.30;15.00
4054;DHT22;2042;47.956;9.222;2023-03-13T01:12:13;6.30;15.10
4054;DHT22;2042;47.956;9.222;2023-03-13T01:14:38;6.40;15.40
4054;DHT22;2042;47.956;9.222;2023-03-13T01:17:04;6.50;15.40
4054;DHT22;2042;47.956;9.222;2023-03-13T01:19:29;6.60;15.10
4054;DHT22;2042;47.956;9.222;2023-03-13T01:21:55;6.60;14.70
4054;DHT22;2042;47.956;9.222;2023-03-13T01:24:21;6.60;14.50
4054;DHT22;2042;47.956;9.222;2023-03-13T01:26:47;6.60;14.80
4054;DHT22;2042;47.956;9.222;2023-03-13T01:29:13;6.70;14.80
4054;DHT22;2042;47.956;9.222;2023-03-13T01:31:38;6.70;15.20
4054;DHT22;2042;47.956;9.222;2023-03-13T01:34:05;6.70;14.90
4054;DHT22;2042;47.956;9.222;2023-03-13T01:36:33;6.70;13.80
4054;DHT22;2042;47.956;9.222;2023-03-13T01:39:00;6.80;14.10
4054;DHT22;2042;47.956;9.222;2023-03-13T01:41:27;6.80;13.80
4054;DHT22;2042;47.956;9.222;2023-03-13T01:43:53;6.80;13.30
4054;DHT22;2042;47.956;9.222;2023-03-13T01:46:27;6.80;12.70
4054;DHT22;2042;47.956;9.222;2023-03-13T01:49:01;6.80;10.00
4054;DHT22;2042;47.956;9.222;2023-03-13T01:54:44;6.90;3.40
4054;DHT22;2042;47.956;9.222;2023-03-13T01:59:59;6.90;1.00
4054;DHT22;2042;47.956;9.222;2023-03-13T02:02:27;6.90;1.00
4054;DHT22;2042;47.956;9.222;2023-03-13T02:04:56;6.90;1.00
4054;DHT22;2042;47.956;9.222;2023-03-13T02:07:32;7.00;1.00
4054;DHT22;2042;47.956;9.222;2023-03-13T02:09:58;7.00;1.00
4054;DHT22;2042;47.956;9.222;2023-03-13T02:12:35;7.00;1.00
4054;DHT22;2042;47.956;9.222;2023-03-13T02:15:06;7.00;1.00
4054;DHT22;2042;47.956;9.222;2023-03-13T02:17:33;7.00;1.00
4054;DHT22;2042;47.956;9.222;2023-03-13T02:19:59;7.00;1.00
4054;DHT22;2042;47.956;9.222;2023-03-13T02:22:37;7.00;1.00
4054;DHT22;2042;47.956;9.222;2023-03-13T02:28:08;7.00;1.00
4054;DHT22;2042;47.956;9.222;2023-03-13T02:30:35;7.00;1.00
4054;DHT22;2042;47.956;9.222;2023-03-13T02:33:02;7.00;1.00
4054;DHT22;2042;47.956;9.222;2023-03-13T02:35:29;7.10;1.00
4054;DHT22;2042;47.956;9.222;2023-03-13T02:38:00;7.10;1.00
4054;DHT22;2042;47.956;9.222;2023-03-13T02:40:36;7.00;1.00
4054;DHT22;2042;47.956;9.222;2023-03-13T02:43:16;7.10;1.00
4054;DHT22;2042;47.956;9.222;2023-03-13T02:45:58;7.10;1.00
4054;DHT22;2042;47.956;9.222;2023-03-13T02:48:34;7.10;1.00
4054;DHT22;2042;47.956;9.222;2023-03-13T02:51:02;7.10;1.00
4054;DHT22;2042;47.956;9.222;2023-03-13T02:53:29;7.10;1.00
4054;DHT22;2042;47.956;9.222;2023-03-13T02:55:54;7.10;1.00
4054;DHT22;2042;47.956;9.222;2023-03-13T02:58:23;7.00;1.00
4054;DHT22;2042;47.956;9.222;2023-03-13T03:00:49;7.00;1.00
4054;DHT22;2042;47.956;9.222;2023-03-13T03:03:15;7.00;1.00
4054;DHT22;2042;47.956;9.222;2023-03-13T03:05:41;7.00;1.00
4054;DHT22;2042;47.956;9.222;2023-03-13T03:08:06;7.00;1.00
4054;DHT22;2042;47.956;9.222;2023-03-13T03:10:35;7.00;1.00
4054;DHT22;2042;47.956;9.222;2023-03-13T03:13:01;7.00;1.00
4054;DHT22;2042;47.956;9.222;2023-03-13T03:15:27;7.00;1.00
4054;DHT22;2042;47.956;9.222;2023-03-13T03:17:52;7.00;1.00
4054;DHT22;2042;47.956;9.222;2023-03-13T03:20:18;7.00;1.00
4054;DHT22;2042;47.956;9.222;2023-03-13T03:22:43;7.00;1.00
4054;DHT22;2042;47.956;9.222;2023-03-13T03:25:09;7.00;1.00
4054;DHT22;2042;47.956;9.222;2023-03-13T03:27:35;7.00;1.00
4054;DHT22;2042;47.956;9.222;2023-03-13T03:30:02;7.00;1.00
4054;DHT22;2042;47.956;9.222;2023-03-13T03:32:27;7.00;1.00
4054;DHT22;2042;47.956;9.222;2023-03-13T03:34:53;7.00;1.00
4054;DHT22;2042;47.956;9.222;2023-03-13T03:37:18;7.00;1.00
4054;DHT22;2042;47.956;9.222;2023-03-13T03:39:44;6.90;1.00
4054;DHT22;2042;47.956;9.222;2023-03-13T03:42:10;7.00;1.00
4054;DHT22;2042;47.956;9.222;2023-03-13T03:44:35;7.00;1.00
4054;DHT22;2042;47.956;9.222;2023-03-13T03:47:01;7.00;1.00
4054;DHT22;2042;47.956;9.222;2023-03-13T03:49:26;7.00;1.00
4054;DHT22;2042;47.956;9.222;2023-03-13T03:51:52;7.00;1.00
4054;DHT22;2042;47.956;9.222;2023-03-13T03:54:18;6.90;1.00
4054;DHT22;2042;47.956;9.222;2023-03-13T03:56:43;7.00;1.00
4054;DHT22;2042;47.956;9.222;2023-03-13T03:59:09;7.00;1.00
4054;DHT22;2042;47.956;9.222;2023-03-13T04:01:34;7.00;2.90
4054;DHT22;2042;47.956;9.222;2023-03-13T04:04:00;7.00;5.50
4054;DHT22;2042;47.956;9.222;2023-03-13T04:06:26;7.00;7.80
4054;DHT22;2042;47.956;9.222;2023-03-13T04:08:51;7.00;8.30
4054;DHT22;2042;47.956;9.222;2023-03-13T04:11:17;7.00;9.50
4054;DHT22;2042;47.956;9.222;2023-03-13T04:13:42;6.90;9.90
4054;DHT22;2042;47.956;9.222;2023-03-13T04:16:09;6.90;11.00
4054;DHT22;2042;47.956;9.222;2023-03-13T04:18:35;6.90;12.40
4054;DHT22;2042;47.956;9.222;2023-03-13T04:21:02;6.80;12.80
4054;DHT22;2042;47.956;9.222;2023-03-13T04:23:28;6.70;12.10
4054;DHT22;2042;47.956;9.222;2023-03-13T04:25:53;6.60;12.30
4054;DHT22;2042;47.956;9.222;2023-03-13T04:28:19;6.50;13.80
4054;DHT22;2042;47.956;9.222;2023-03-13T04:30:44;6.50;15.00
4054;DHT22;2042;47.956;9.222;2023-03-13T04:33:10;6.60;15.20
4054;DHT22;2042;47.956;9.222;2023-03-13T04:35:36;6.70;15.20
4054;DHT22;2042;47.956;9.222;2023-03-13T04:38:01;6.70;15.10
4054;DHT22;2042;47.956;9.222;2023-03-13T04:40:27;6.80;14.80
4054;DHT22;2042;47.956;9.222;2023-03-13T04:42:53;6.90;15.30
4054;DHT22;2042;47.956;9.222;2023-03-13T04:45:19;6.90;15.10
4054;DHT22;2042;47.956;9.222;2023-03-13T04:47:47;6.90;13.40
4054;DHT22;2042;47.956;9.222;2023-03-13T04:50:13;6.90;10.80
4054;DHT22;2042;47.956;9.222;2023-03-13T04:52:38;6.90;10.30
4054;DHT22;2042;47.956;9.222;2023-03-13T04:55:04;6.90;10.90
4054;DHT22;2042;47.956;9.222;2023-03-13T04:57:30;6.90;12.00
4054;DHT22;2042;47.956;9.222;2023-03-13T04:59:56;7.00;10.50
4054;DHT22;2042;47.956;9.222;2023-03-13T05:02:21;7.00;8.90
4054;DHT22;2042;47.956;9.222;2023-03-13T05:04:47;7.00;7.40
4054;DHT22;2042;47.956;9.222;2023-03-13T05:07:12;7.00;6.40
4054;DHT22;2042;47.956;9.222;2023-03-13T05:09:38;7.00;2.80
4054;DHT22;2042;47.956;9.222;2023-03-13T05:12:04;7.00;1.00
4054;DHT22;2042;47.956;9.222;2023-03-13T05:14:29;6.90;1.00
4054;DHT22;2042;47.956;9.222;2023-03-13T05:16:55;6.90;1.00
4054;DHT22;2042;47.956;9.222;2023-03-13T05:19:21;6.80;1.00
4054;DHT22;2042;47.956;9.222;2023-03-13T05:21:46;6.80;1.70
4054;DHT22;2042;47.956;9.222;2023-03-13T05:24:12;6.80;3.30
4054;DHT22;2042;47.956;9.222;2023-03-13T05:26:38;6.80;4.00
4054;DHT22;2042;47.956;9.222;2023-03-13T05:29:03;6.80;3.60
4054;DHT22;2042;47.956;9.222;2023-03-13T05:31:29;6.80;4.10
4054;DHT22;2042;47.956;9.222;2023-03-13T05:33:54;6.80;5.90
4054;DHT22;2042;47.956;9.222;2023-03-13T05:36:20;6.80;6.50
4054;DHT22;2042;47.956;9.222;2023-03-13T05:38:46;6.90;4.90
4054;DHT22;2042;47.956;9.222;2023-03-13T05:41:12;7.00;2.80
4054;DHT22;2042;47.956;9.222;2023-03-13T05:43:37;7.00;1.00
4054;DHT22;2042;47.956;9.222;2023-03-13T05:46:03;7.10;1.00
4054;DHT22;2042;47.956;9.222;2023-03-13T05:48:29;7.10;1.00
4054;DHT22;2042;47.956;9.222;2023-03-13T05:50:54;7.20;1.00
4054;DHT22;2042;47.956;9.222;2023-03-13T05:53:20;7.20;1.00
4054;DHT22;2042;47.956;9.222;2023-03-13T05:55:45;7.20;1.00
4054;DHT22;2042;47.956;9.222;2023-03-13T05:58:11;7.30;1.00
4054;DHT22;2042;47.956;9.222;2023-03-13T06:00:37;7.30;1.00
4054;DHT22;2042;47.956;9.222;2023-03-13T06:03:02;7.30;1.00
4054;DHT22;2042;47.956;9.222;2023-03-13T06:05:28;7.30;1.00
4054;DHT22;2042;47.956;9.222;2023-03-13T06:07:53;7.30;1.00
4054;DHT22;2042;47.956;9.222;2023-03-13T06:10:19;7.40;1.00
4054;DHT22;2042;47.956;9.222;2023-03-13T06:12:51;7.30;1.00
4054;DHT22;2042;47.956;9.222;2023-03-13T06:15:17;7.40;1.00
4054;DHT22;2042;47.956;9.222;2023-03-13T06:17:43;7.50;1.00
4054;DHT22;2042;47.956;9.222;2023-03-13T06:20:09;7.50;1.00
4054;DHT22;2042;47.956;9.222;2023-03-13T06:22:36;7.60;1.00
4054;DHT22;2042;47.956;9.222;2023-03-13T06:25:01;7.60;1.00
4054;DHT22;2042;47.956;9.222;2023-03-13T06:27:27;7.70;1.00
4054;DHT22;2042;47.956;9.222;2023-03-13T06:29:53;7.80;1.00
4054;DHT22;2042;47.956;9.222;2023-03-13T06:32:18;7.80;1.00
4054;DHT22;2042;47.956;9.222;2023-03-13T06:34:44;7.90;1.00
4054;DHT22;2042;47.956;9.222;2023-03-13T06:37:09;8.00;1.00
4054;DHT22;2042;47.956;9.222;2023-03-13T06:39:35;8.00;1.00
4054;DHT22;2042;47.956;9.222;2023-03-13T06:42:01;8.00;1.00
4054;DHT22;2042;47.956;9.222;2023-03-13T06:44:26;8.10;1.00
4054;DHT22;2042;47.956;9.222;2023-03-13T06:46:52;8.20;1.00
4054;DHT22;2042;47.956;9.222;2023-03-13T06:49:17;8.20;1.00
4054;DHT22;2042;47.956;9.222;2023-03-13T06:51:43;8.30;1.00
4054;DHT22;2042;47.956;9.222;2023-03-13T06:54:09;8.40;1.00
4054;DHT22;2042;47.956;9.222;2023-03-13T06:56:34;8.40;1.00
4054;DHT22;2042;47.956;9.222;2023-03-13T06:59:00;8.50;1.00
4054;DHT22;2042;47.956;9.222;2023-03-13T07:01:26;8.50;1.00
4054;DHT22;2042;47.956;9.222;2023-03-13T07:03:52;8.60;1.00
4054;DHT22;2042;47.956;9.222;2023-03-13T07:06:17;8.60;1.00
4054;DHT22;2042;47.956;9.222;2023-03-13T07:08:43;8.70;1.00
4054;DHT22;2042;47.956;9.222;2023-03-13T07:11:11;8.80;1.00
4054;DHT22;2042;47.956;9.222;2023-03-13T07:13:38;8.80;1.00
4054;DHT22;2042;47.956;9.222;2023-03-13T07:16:11;8.90;1.00
4054;DHT22;2042;47.956;9.222;2023-03-13T07:18:38;9.00;1.00
4054;DHT22;2042;47.956;9.222;2023-03-13T07:21:06;9.00;1.00
4054;DHT22;2042;47.956;9.222;2023-03-13T07:23:33;9.00;1.00
4054;DHT22;2042;47.956;9.222;2023-03-13T07:26:05;9.10;1.00
4054;DHT22;2042;47.956;9.222;2023-03-13T07:28:31;9.10;1.00
4054;DHT22;2042;47.956;9.222;2023-03-13T07:31:14;9.20;1.00
4054;DHT22;2042;47.956;9.222;2023-03-13T07:33:40;9.20;1.00
4054;DHT22;2042;47.956;9.222;2023-03-13T07:36:06;9.30;1.00
4054;DHT22;2042;47.956;9.222;2023-03-13T07:38:33;9.40;1.00
4054;DHT22;2042;47.956;9.222;2023-03-13T07:40:58;9.40;1.00
4054;DHT22;2042;47.956;9.222;2023-03-13T07:43:25;9.50;1.00
4054;DHT22;2042;47.956;9.222;2023-03-13T07:45:54;9.60;1.00
4054;DHT22;2042;47.956;9.222;2023-03-13T07:48:21;9.60;1.00
4054;DHT22;2042;47.956;9.222;2023-03-13T07:50:47;9.60;1.00
4054;DHT22;2042;47.956;9.222;2023-03-13T07:53:13;9.60;1.00
4054;DHT22;2042;47.956;9.222;2023-03-13T07:55:58;9.60;1.00
4054;DHT22;2042;47.956;9.222;2023-03-13T07:58:25;9.70;1.00
4054;DHT22;2042;47.956;9.222;2023-03-13T08:00:52;9.70;1.00
4054;DHT22;2042;47.956;9.222;2023-03-13T08:03:18;9.90;1.00
4054;DHT22;2042;47.956;9.222;2023-03-13T08:05:44;9.90;1.00
4054;DHT22;2042;47.956;9.222;2023-03-13T08:08:10;10.00;1.00
4054;DHT22;2042;47.956;9.222;2023-03-13T08:10:35;10.00;1.00
4054;DHT22;2042;47.956;9.222;2023-03-13T08:13:01;10.00;1.00
4054;DHT22;2042;47.956;9.222;2023-03-13T08:15:27;10.00;1.00
4054;DHT22;2042;47.956;9.222;2023-03-13T08:17:53;10.00;1.00
4054;DHT22;2042;47.956;9.222;2023-03-13T08:20:19;10.10;1.00
4054;DHT22;2042;47.956;9.222;2023-03-13T08:22:45;10.10;1.00
4054;DHT22;2042;47.956;9.222;2023-03-13T08:25:12;10.20;1.00
4054;DHT22;2042;47.956;9.222;2023-03-13T08:27:38;10.40;1.00
4054;DHT22;2042;47.956;9.222;2023-03-13T08:30:04;10.70;1.00
4054;DHT22;2042;47.956;9.222;2023-03-13T08:32:34;11.10;1.00
4054;DHT22;2042;47.956;9.222;2023-03-13T08:35:00;11.60;1.00
4054;DHT22;2042;47.956;9.222;2023-03-13T08:37:26;11.70;1.00
4054;DHT22;2042;47.956;9.222;2023-03-13T08:39:51;11.60;1.00
4054;DHT22;2042;47.956;9.222;2023-03-13T08:42:20;11.60;1.00
4054;DHT22;2042;47.956;9.222;2023-03-13T08:44:46;11.50;1.00
4054;DHT22;2042;47.956;9.222;2023-03-13T08:47:11;11.70;1.00
4054;DHT22;2042;47.956;9.222;2023-03-13T08:49:37;12.20;1.00
4054;DHT22;2042;47.956;9.222;2023-03-13T08:52:04;12.60;1.00
4054;DHT22;2042;47.956;9.222;2023-03-13T08:54:30;12.80;1.00
4054;DHT22;2042;47.956;9.222;2023-03-13T08:56:56;12.90;1.00
4054;DHT22;2042;47.956;9.222;2023-03-13T08:59:21;12.90;1.00
4054;DHT22;2042;47.956;9.222;2023-03-13T09:01:47;12.90;1.00
4054;DHT22;2042;47.956;9.222;2023-03-13T09:04:13;12.90;1.00
4054;DHT22;2042;47.956;9.222;2023-03-13T09:06:39;13.00;1.00
4054;DHT22;2042;47.956;9.222;2023-03-13T09:09:05;13.20;1.00
4054;DHT22;2042;47.956;9.222;2023-03-13T18:12:55;11.80;20.40
4054;DHT22;2042;47.956;9.222;2023-03-13T18:17:49;11.00;1.00
4054;DHT22;2042;47.956;9.222;2023-03-13T18:20:18;10.90;1.00
4054;DHT22;2042;47.956;9.222;2023-03-13T18:22:44;10.70;1.00
4054;DHT22;2042;47.956;9.222;2023-03-13T18:25:11;10.80;1.00
4054;DHT22;2042;47.956;9.222;2023-03-13T18:27:37;10.90;1.00
4054;DHT22;2042;47.956;9.222;2023-03-13T18:30:12;11.10;1.00
4054;DHT22;2042;47.956;9.222;2023-03-13T18:32:37;11.20;1.00
4054;DHT22;2042;47.956;9.222;2023-03-13T18:35:03;11.50;1.00
4054;DHT22;2042;47.956;9.222;2023-03-13T18:37:29;11.80;1.00
4054;DHT22;2042;47.956;9.222;2023-03-13T18:39:57;12.00;1.00
4054;DHT22;2042;47.956;9.222;2023-03-13T18:42:24;11.80;1.00
4054;DHT22;2042;47.956;9.222;2023-03-13T18:44:50;11.40;1.00
4054;DHT22;2042;47.956;9.222;2023-03-13T18:49:44;10.70;18.00
4054;DHT22;2042;47.956;9.222;2023-03-13T18:52:12;10.60;1.00
4054;DHT22;2042;47.956;9.222;2023-03-13T18:54:38;10.50;1.00
4054;DHT22;2042;47.956;9.222;2023-03-13T18:57:14;10.40;1.00
4054;DHT22;2042;47.956;9.222;2023-03-13T18:59:41;10.30;1.00
4054;DHT22;2042;47.956;9.222;2023-03-13T19:02:14;10.20;1.00
4054;DHT22;2042;47.956;9.222;2023-03-13T19:04:41;10.20;1.00
4054;DHT22;2042;47.956;9.222;2023-03-13T19:07:15;10.00;1.00
4054;DHT22;2042;47.956;9.222;2023-03-13T19:12:10;9.70;20.00
4054;DHT22;2042;47.956;9.222;2023-03-13T19:14:36;9.60;1.00
4054;DHT22;2042;47.956;9.222;2023-03-13T19:17:01;9.50;1.00
4054;DHT22;2042;47.956;9.222;2023-03-13T19:19:31;9.40;1.00
4054;DHT22;2042;47.956;9.222;2023-03-13T19:21:57;9.30;1.00
4054;DHT22;2042;47.956;9.222;2023-03-13T19:24:23;9.30;1.00
4054;DHT22;2042;47.956;9.222;2023-03-13T19:26:51;9.30;1.00
4054;DHT22;2042;47.956;9.222;2023-03-13T19:29:23;9.20;1.00
4054;DHT22;2042;47.956;9.222;2023-03-13T19:31:49;9.10;1.00
4054;DHT22;2042;47.956;9.222;2023-03-13T19:34:15;9.00;1.00
4054;DHT22;2042;47.956;9.222;2023-03-13T19:36:46;8.90;1.00
4054;DHT22;2042;47.956;9.222;2023-03-13T19:39:20;8.80;1.00
4054;DHT22;2042;47.956;9.222;2023-03-13T19:41:48;8.70;1.00
4054;DHT22;2042;47.956;9.222;2023-03-13T19:44:15;8.70;1.10
4054;DHT22;2042;47.956;9.222;2023-03-13T19:46:41;8.60;2.30
4054;DHT22;2042;47.956;9.222;2023-03-13T19:49:17;8.60;1.00
4054;DHT22;2042;47.956;9.222;2023-03-13T19:51:43;8.50;1.00
4054;DHT22;2042;47.956;9.222;2023-03-13T19:54:12;8.50;1.00
4054;DHT22;2042;47.956;9.222;2023-03-13T19:56:47;8.50;1.00
4054;DHT22;2042;47.956;9.222;2023-03-13T20:28:44;9.70;1.00
4054;DHT22;2042;47.956;9.222;2023-03-13T20:41:00;11.70;1.00
4054;DHT22;2042;47.956;9.222;2023-03-13T20:43:26;11.50;1.00
4054;DHT22;2042;47.956;9.222;2023-03-13T20:45:53;11.30;1.00
4054;DHT22;2042;47.956;9.222;2023-03-13T20:48:19;11.20;1.00
4054;DHT22;2042;47.956;9.222;2023-03-13T20:50:48;11.10;1.00
4054;DHT22;2042;47.956;9.222;2023-03-13T20:53:14;11.00;1.00
4054;DHT22;2042;47.956;9.222;2023-03-13T20:55:40;10.80;1.00
4054;DHT22;2042;47.956;9.222;2023-03-13T20:58:06;10.70;1.00
4054;DHT22;2042;47.956;9.222;2023-03-13T21:00:32;10.50;1.00
4054;DHT22;2042;47.956;9.222;2023-03-13T21:02:58;10.30;1.00
4054;DHT22;2042;47.956;9.222;2023-03-13T21:10:16;10.00;1.00
4054;DHT22;2042;47.956;9.222;2023-03-13T21:12:43;9.90;4.20
4054;DHT22;2042;47.956;9.222;2023-03-13T21:15:10;9.90;5.80
4054;DHT22;2042;47.956;9.222;2023-03-13T21:17:36;9.80;5.10
4054;DHT22;2042;47.956;9.222;2023-03-13T21:20:03;9.80;3.60
4054;DHT22;2042;47.956;9.222;2023-03-13T21:22:47;9.70;2.80
4054;DHT22;2042;47.956;9.222;2023-03-13T21:25:13;9.70;1.40
4054;DHT22;2042;47.956;9.222;2023-03-13T21:27:39;9.60;1.00
4054;DHT22;2042;47.956;9.222;2023-03-13T21:30:06;9.50;1.00
4054;DHT22;2042;47.956;9.222;2023-03-13T21:32:36;9.30;1.00
4054;DHT22;2042;47.956;9.222;2023-03-13T21:35:02;9.20;1.00
4054;DHT22;2042;47.956;9.222;2023-03-13T21:37:28;9.10;1.00
4054;DHT22;2042;47.956;9.222;2023-03-13T21:39:54;9.00;1.00
4054;DHT22;2042;47.956;9.222;2023-03-13T21:42:20;8.90;1.00
4054;DHT22;2042;47.956;9.222;2023-03-13T21:44:48;8.80;1.00
4054;DHT22;2042;47.956;9.222;2023-03-13T21:47:16;8.70;1.00
4054;DHT22;2042;47.956;9.222;2023-03-13T21:49:54;8.60;1.00
4054;DHT22;2042;47.956;9.222;2023-03-13T21:52:20;8.50;1.00
4054;DHT22;2042;47.956;9.222;2023-03-13T21:57:13;8.30;2.80
4054;DHT22;2042;47.956;9.222;2023-03-13T21:59:40;8.30;5.60
4054;DHT22;2042;47.956;9.222;2023-03-13T22:02:06;8.30;7.70
4054;DHT22;2042;47.956;9.222;2023-03-13T22:04:32;8.20;8.60
4054;DHT22;2042;47.956;9.222;2023-03-13T22:06:57;8.20;9.70
4054;DHT22;2042;47.956;9.222;2023-03-13T22:09:23;8.10;11.50
4054;DHT22;2042;47.956;9.222;2023-03-13T22:11:49;8.10;13.60
4054;DHT22;2042;47.956;9.222;2023-03-13T22:14:15;8.10;15.90
4054;DHT22;2042;47.956;9.222;2023-03-13T22:16:41;8.00;16.20
4054;DHT22;2042;47.956;9.222;2023-03-13T22:19:06;8.00;17.50
4054;DHT22;2042;47.956;9.222;2023-03-13T22:21:32;8.00;19.10
4054;DHT22;2042;47.956;9.222;2023-03-13T22:23:58;8.00;19.90
4054;DHT22;2042;47.956;9.222;2023-03-13T22:26:23;8.00;20.40
4054;DHT22;2042;47.956;9.222;2023-03-13T22:28:49;8.00;21.20
4054;DHT22;2042;47.956;9.222;2023-03-13T22:31:15;7.90;22.00
4054;DHT22;2042;47.956;9.222;2023-03-13T22:33:40;7.90;22.70
4054;DHT22;2042;47.956;9.222;2023-03-13T22:36:07;8.00;22.70
4054;DHT22;2042;47.956;9.222;2023-03-13T22:38:33;7.90;23.00
4054;DHT22;2042;47.956;9.222;2023-03-13T22:41:05;7.90;23.30
4054;DHT22;2042;47.956;9.222;2023-03-13T22:43:31;7.90;23.40
4054;DHT22;2042;47.956;9.222;2023-03-13T22:45:57;7.90;23.40
4054;DHT22;2042;47.956;9.222;2023-03-13T22:48:24;7.80;23.50
4054;DHT22;2042;47.956;9.222;2023-03-13T22:50:59;7.80;23.70
4054;DHT22;2042;47.956;9.222;2023-03-13T22:53:25;7.70;23.90
4054;DHT22;2042;47.956;9.222;2023-03-13T22:55:51;7.70;24.30
4054;DHT22;2042;47.956;9.222;2023-03-13T22:58:16;7.70;24.60
4054;DHT22;2042;47.956;9.222;2023-03-13T23:00:42;7.60;24.80
4054;DHT22;2042;47.956;9.222;2023-03-13T23:03:08;7.60;25.00
4054;DHT22;2042;47.956;9.222;2023-03-13T23:05:40;7.60;25.80
4054;DHT22;2042;47.956;9.222;2023-03-13T23:08:06;7.60;25.40
4054;DHT22;2042;47.956;9.222;2023-03-13T23:10:32;7.60;25.90
4054;DHT22;2042;47.956;9.222;2023-03-13T23:12:57;7.60;26.20
4054;DHT22;2042;47.956;9.222;2023-03-13T23:15:23;7.60;28.80
4054;DHT22;2042;47.956;9.222;2023-03-13T23:17:49;7.60;26.50
4054;DHT22;2042;47.956;9.222;2023-03-13T23:20:14;7.60;26.70
4054;DHT22;2042;47.956;9.222;2023-03-13T23:22:41;7.60;26.90
4054;DHT22;2042;47.956;9.222;2023-03-13T23:25:08;7.60;27.90
4054;DHT22;2042;47.956;9.222;2023-03-13T23:27:34;7.60;27.70
4054;DHT22;2042;47.956;9.222;2023-03-13T23:30:00;7.60;27.90
4054;DHT22;2042;47.956;9.222;2023-03-13T23:32:28;7.60;28.20
4054;DHT22;2042;47.956;9.222;2023-03-13T23:34:54;7.60;28.40
4054;DHT22;2042;47.956;9.222;2023-03-13T23:37:20;7.60;28.70
4054;DHT22;2042;47.956;9.222;2023-03-13T23:39:46;7.60;28.70
4054;DHT22;2042;47.956;9.222;2023-03-13T23:42:11;7.60;28.80
4054;DHT22;2042;47.956;9.222;2023-03-13T23:44:37;7.60;29.00
4054;DHT22;2042;47.956;9.222;2023-03-13T23:47:02;7.60;29.10
4054;DHT22;2042;47.956;9.222;2023-03-13T23:49:28;7.60;29.30
4054;DHT22;2042;47.956;9.222;2023-03-13T23:51:56;7.60;29.40
4054;DHT22;2042;47.956;9.222;2023-03-13T23:54:21;7.60;29.60
4054;DHT22;2042;47.956;9.222;2023-03-13T23:56:47;7.60;29.90
4054;DHT22;2042;47.956;9.222;2023-03-13T23:59:13;7.60;30.00
